Time;durP1;ratioP1;P1;durP2;ratioP2;P2;SDS_P1;SDS_P2;PMS_P1;PMS_P2;Temp;Humidity;BMP_temperature;BMP_pressure;BME280_temperature;BME280_humidity;BME280_pressure;Samples;Min_cycle;Max_cycle;Signal;HPM_P1;HPM_P2
2022/10/24 00:01:36;;;;;;;6.03;2.77;;;15.20;99.90;;;;;;5077500;28;20455;-83
2022/10/24 00:04:02;;;;;;;8.27;2.87;;;15.30;99.90;;;;;;5078455;28;20454;-83
2022/10/24 00:06:29;;;;;;;5.63;3.00;;;15.30;99.90;;;;;;5076789;28;20966;-83
2022/10/24 00:08:56;;;;;;;4.73;2.00;;;15.30;99.90;;;;;;5076949;28;20554;-84
2022/10/24 00:11:25;;;;;;;7.07;2.70;;;15.30;99.90;;;;;;5077419;28;20452;-83
2022/10/24 00:13:53;;;;;;;5.40;2.20;;;15.30;99.90;;;;;;5075965;28;20572;-84
2022/10/24 00:16:20;;;;;;;6.50;2.90;;;15.40;99.90;;;;;;5076709;28;20461;-83
2022/10/24 00:18:48;;;;;;;9.00;2.97;;;15.30;99.90;;;;;;5076042;28;20834;-83
2022/10/24 00:21:16;;;;;;;9.73;2.50;;;15.30;99.90;;;;;;5076032;28;20490;-84
2022/10/24 00:23:43;;;;;;;3.17;2.13;;;15.30;99.90;;;;;;5076576;28;21303;-83
2022/10/24 00:26:10;;;;;;;6.63;2.53;;;15.30;99.90;;;;;;5077078;28;20459;-84
2022/10/24 00:28:38;;;;;;;6.33;2.53;;;15.30;99.90;;;;;;5075209;28;20453;-83
2022/10/24 00:31:06;;;;;;;7.40;2.30;;;15.30;99.90;;;;;;5076274;28;20835;-84
2022/10/24 00:33:34;;;;;;;5.53;2.30;;;15.20;99.90;;;;;;5076739;28;20472;-84
2022/10/24 00:36:02;;;;;;;6.37;2.90;;;15.20;99.90;;;;;;5076810;28;20439;-84
2022/10/24 00:38:28;;;;;;;6.53;2.90;;;15.20;99.90;;;;;;5074967;28;20450;-83
2022/10/24 00:40:55;;;;;;;4.57;2.43;;;15.20;99.90;;;;;;5076477;28;20450;-84
2022/10/24 00:43:26;;;;;;;8.00;2.40;;;15.10;99.90;;;;;;5076944;28;20855;-84
2022/10/24 00:45:54;;;;;;;5.37;3.17;;;15.20;99.90;;;;;;5076810;28;20448;-84
2022/10/24 00:48:26;;;;;;;6.77;3.03;;;15.20;99.90;;;;;;5076279;28;20945;-84
2022/10/24 00:50:56;;;;;;;7.50;3.00;;;15.20;99.90;;;;;;5076027;28;20463;-84
2022/10/24 00:53:26;;;;;;;5.77;2.70;;;15.20;99.90;;;;;;5076978;28;20473;-85
2022/10/24 00:55:57;;;;;;;6.00;2.43;;;15.10;99.90;;;;;;5075667;28;20493;-84
2022/10/24 00:58:28;;;;;;;9.47;2.90;;;15.10;99.90;;;;;;5076048;28;20451;-84
2022/10/24 01:00:55;;;;;;;6.20;2.63;;;15.10;99.90;;;;;;5076505;28;20462;-84
2022/10/24 01:03:22;;;;;;;4.47;2.80;;;15.20;99.90;;;;;;5076633;28;20471;-83
2022/10/24 01:06:04;;;;;;;5.40;2.63;;;15.10;99.90;;;;;;5076627;28;20447;-84
2022/10/24 01:08:42;;;;;;;6.00;3.20;;;15.10;99.90;;;;;;5075329;28;20835;-85
2022/10/24 01:11:17;;;;;;;9.37;3.60;;;15.10;99.90;;;;;;5075806;28;20450;-84
2022/10/24 01:13:52;;;;;;;5.63;2.60;;;15.10;99.90;;;;;;5076554;28;20492;-84
2022/10/24 01:16:23;;;;;;;6.80;2.47;;;15.10;99.90;;;;;;5076614;28;20428;-83
2022/10/24 01:18:58;;;;;;;4.50;2.23;;;15.20;99.90;;;;;;5076082;28;20458;-84
2022/10/24 01:21:30;;;;;;;5.27;2.50;;;15.30;99.90;;;;;;5076010;28;20451;-83
2022/10/24 01:24:22;;;;;;;7.10;2.67;;;15.40;99.90;;;;;;5076466;28;20474;-85
2022/10/24 01:27:13;;;;;;;6.00;2.10;;;15.40;99.90;;;;;;5075526;28;20435;-85
2022/10/24 01:29:50;;;;;;;5.93;2.20;;;15.60;99.90;;;;;;5074220;28;20447;-83
2022/10/24 01:32:26;;;;;;;4.60;2.10;;;15.60;99.90;;;;;;5076191;28;20478;-83
2022/10/24 01:35:00;;;;;;;5.23;2.50;;;15.60;99.90;;;;;;5076047;28;20484;-83
2022/10/24 01:37:34;;;;;;;7.93;2.10;;;15.70;99.90;;;;;;5075575;28;20435;-85
2022/10/24 01:40:09;;;;;;;4.37;2.30;;;15.70;99.90;;;;;;5075173;28;20454;-83
2022/10/24 01:42:38;;;;;;;3.17;2.23;;;15.80;99.90;;;;;;5075812;28;20480;-83
2022/10/24 01:45:10;;;;;;;5.03;2.07;;;15.90;99.90;;;;;;5072219;28;20455;-84
2022/10/24 01:47:41;;;;;;;11.93;1.87;;;16.00;99.90;;;;;;5074502;28;20464;-83
2022/10/24 01:50:11;;;;;;;8.30;2.30;;;16.10;99.90;;;;;;5074282;28;20840;-83
2022/10/24 01:52:42;;;;;;;7.77;2.37;;;15.90;99.90;;;;;;5075001;28;20475;-83
2022/10/24 01:55:10;;;;;;;2.57;1.70;;;15.90;99.90;;;;;;5075414;28;20489;-84
2022/10/24 01:57:37;;;;;;;4.63;1.47;;;15.90;99.90;;;;;;5074361;28;20453;-83
2022/10/24 02:00:08;;;;;;;4.40;1.93;;;15.80;99.90;;;;;;5075000;28;20499;-82
2022/10/24 02:02:39;;;;;;;3.90;1.90;;;15.80;99.90;;;;;;5089471;28;20478;-82
2022/10/24 02:05:12;;;;;;;6.43;2.37;;;15.70;99.90;;;;;;5090468;28;20485;-80
2022/10/24 02:07:42;;;;;;;4.53;2.03;;;15.70;99.90;;;;;;5078265;28;20440;-83
2022/10/24 02:10:12;;;;;;;5.10;2.40;;;15.70;99.90;;;;;;5074216;28;20456;-84
2022/10/24 02:12:43;;;;;;;4.47;2.00;;;15.80;99.90;;;;;;5075348;28;20481;-85
2022/10/24 02:15:18;;;;;;;8.70;2.47;;;15.80;99.90;;;;;;5074948;28;20483;-83
2022/10/24 02:17:45;;;;;;;7.13;2.20;;;15.90;99.90;;;;;;5074926;28;20432;-82
2022/10/24 02:20:12;;;;;;;11.60;2.30;;;16.00;99.90;;;;;;5073590;28;20976;-84
2022/10/24 02:22:44;;;;;;;4.93;2.33;;;16.00;99.90;;;;;;5074557;28;20485;-83
2022/10/24 02:25:16;;;;;;;4.60;2.63;;;16.00;99.90;;;;;;5074558;28;20429;-83
2022/10/24 02:27:50;;;;;;;8.10;2.23;;;16.10;99.90;;;;;;5073490;28;20443;-83
2022/10/24 02:30:21;;;;;;;4.60;2.20;;;16.10;99.90;;;;;;5074467;28;20428;-83
2022/10/24 02:32:52;;;;;;;7.70;1.93;;;16.10;99.90;;;;;;5074029;28;20471;-84
2022/10/24 02:35:23;;;;;;;6.00;2.53;;;16.20;99.90;;;;;;5074430;28;20843;-82
2022/10/24 02:37:54;;;;;;;8.80;3.53;;;16.20;99.90;;;;;;5073530;28;20455;-82
2022/10/24 02:40:22;;;;;;;8.73;2.30;;;16.20;99.90;;;;;;5073757;28;20433;-83
2022/10/24 02:42:53;;;;;;;5.50;1.87;;;16.20;99.90;;;;;;5074594;28;20859;-84
2022/10/24 02:45:23;;;;;;;7.33;2.70;;;16.10;99.90;;;;;;5074460;28;20470;-83
2022/10/24 02:47:55;;;;;;;7.10;1.80;;;16.20;99.90;;;;;;5073374;28;20445;-83
2022/10/24 02:50:22;;;;;;;3.90;2.00;;;16.20;99.90;;;;;;5073397;28;20451;-82
2022/10/24 02:52:49;;;;;;;7.20;1.70;;;16.20;99.90;;;;;;5074399;28;20485;-85
2022/10/24 02:55:16;;;;;;;6.10;3.00;;;16.20;99.90;;;;;;5074435;28;20493;-83
2022/10/24 02:57:42;;;;;;;5.63;2.53;;;16.30;99.90;;;;;;5073747;28;21049;-84
2022/10/24 03:00:11;;;;;;;5.50;2.03;;;16.40;99.90;;;;;;5073760;28;20465;-84
2022/10/24 03:02:39;;;;;;;6.53;1.83;;;16.40;99.90;;;;;;5073752;28;20488;-84
2022/10/24 03:05:07;;;;;;;5.50;1.80;;;16.40;99.90;;;;;;5073514;28;20457;-83
2022/10/24 03:07:33;;;;;;;4.50;1.50;;;16.40;99.90;;;;;;5073637;28;20558;-82
2022/10/24 03:10:00;;;;;;;4.43;1.93;;;16.50;99.90;;;;;;5073005;28;20447;-84
2022/10/24 03:12:27;;;;;;;8.60;1.97;;;16.50;99.90;;;;;;5073544;28;20488;-81
2022/10/24 03:14:54;;;;;;;3.87;1.60;;;16.60;99.90;;;;;;5073881;28;20580;-80
2022/10/24 03:17:22;;;;;;;4.50;1.73;;;16.60;99.90;;;;;;5073851;28;20450;-81
2022/10/24 03:19:50;;;;;;;6.70;1.97;;;16.70;99.90;;;;;;5072674;28;20459;-81
2022/10/24 03:22:17;;;;;;;6.30;1.77;;;16.60;99.90;;;;;;5073573;28;21006;-82
2022/10/24 03:24:43;;;;;;;5.03;1.80;;;16.70;99.90;;;;;;5073751;28;20535;-83
2022/10/24 03:27:10;;;;;;;4.37;1.97;;;16.80;99.90;;;;;;5073631;28;20458;-84
2022/10/24 03:29:37;;;;;;;5.07;1.80;;;16.80;99.90;;;;;;5071122;28;20458;-83
2022/10/24 03:32:05;;;;;;;4.37;1.50;;;16.80;99.90;;;;;;5073709;28;20550;-83
2022/10/24 03:34:32;;;;;;;6.63;2.13;;;16.80;99.90;;;;;;5073304;28;20451;-82
2022/10/24 03:37:00;;;;;;;8.53;2.97;;;16.80;99.90;;;;;;5073391;28;20462;-83
2022/10/24 03:39:27;;;;;;;6.37;2.00;;;16.70;99.90;;;;;;5072356;28;20454;-83
2022/10/24 03:41:54;;;;;;;5.10;2.43;;;16.70;99.90;;;;;;5073347;28;20457;-82
2022/10/24 03:44:21;;;;;;;11.10;1.80;;;16.60;99.90;;;;;;5073149;28;20450;-83
2022/10/24 03:46:47;;;;;;;4.27;1.57;;;16.60;99.90;;;;;;5074036;28;20447;-83
2022/10/24 03:49:14;;;;;;;8.53;1.97;;;16.60;99.90;;;;;;5072421;28;20463;-83
2022/10/24 03:51:41;;;;;;;8.23;2.80;;;16.50;99.90;;;;;;5073238;28;20450;-83
2022/10/24 03:54:10;;;;;;;6.50;2.10;;;16.60;99.90;;;;;;5072999;28;20461;-82
2022/10/24 03:56:37;;;;;;;4.20;1.83;;;16.60;99.90;;;;;;5072823;28;20489;-82
2022/10/24 03:59:04;;;;;;;5.43;2.00;;;16.60;99.90;;;;;;5072649;28;20457;-81
2022/10/24 04:01:30;;;;;;;5.07;1.60;;;16.70;99.90;;;;;;5074149;28;20453;-80
2022/10/24 04:03:57;;;;;;;4.00;1.77;;;16.70;99.90;;;;;;5077803;28;21021;-82
2022/10/24 04:06:24;;;;;;;4.40;1.67;;;16.70;99.90;;;;;;5080159;28;20435;-81
2022/10/24 04:08:51;;;;;;;4.10;2.07;;;16.70;99.90;;;;;;5072243;28;20457;-83
2022/10/24 04:11:19;;;;;;;7.87;1.73;;;16.70;99.90;;;;;;5073022;28;20450;-83
2022/10/24 04:13:46;;;;;;;3.13;1.90;;;16.70;99.90;;;;;;5072374;28;20501;-84
2022/10/24 04:16:12;;;;;;;7.23;2.03;;;16.70;99.90;;;;;;5072724;28;20487;-83
2022/10/24 04:18:39;;;;;;;8.57;2.23;;;16.70;99.90;;;;;;5071972;28;20476;-83
2022/10/24 04:21:06;;;;;;;5.03;1.50;;;16.80;99.90;;;;;;5074647;28;20455;-84
2022/10/24 04:23:37;;;;;;;8.50;1.87;;;16.70;99.90;;;;;;5076351;28;20469;-83
2022/10/24 04:26:04;;;;;;;3.57;1.70;;;16.60;99.90;;;;;;5076274;28;20504;-82
2022/10/24 04:28:32;;;;;;;7.20;1.70;;;16.60;99.90;;;;;;5073451;28;20955;-83
2022/10/24 04:30:59;;;;;;;5.27;2.20;;;16.60;99.90;;;;;;5076565;28;20457;-84
2022/10/24 04:33:26;;;;;;;6.00;2.10;;;16.60;99.90;;;;;;5075756;28;20478;-83
2022/10/24 04:35:53;;;;;;;4.23;2.10;;;16.60;99.90;;;;;;5076385;28;20845;-83
2022/10/24 04:38:22;;;;;;;6.83;2.13;;;16.50;99.90;;;;;;5075869;28;20470;-84
2022/10/24 04:40:50;;;;;;;3.30;1.87;;;16.50;99.90;;;;;;5076411;28;20457;-82
2022/10/24 04:43:19;;;;;;;4.30;1.87;;;16.50;99.90;;;;;;5075988;28;20847;-82
2022/10/24 04:45:47;;;;;;;3.17;1.70;;;16.60;99.90;;;;;;5076345;28;20445;-82
2022/10/24 04:48:15;;;;;;;3.73;1.77;;;16.50;99.90;;;;;;5074863;28;20461;-81
2022/10/24 04:50:43;;;;;;;4.00;1.53;;;16.50;99.90;;;;;;5077643;28;20459;-81
2022/10/24 04:53:10;;;;;;;3.30;1.73;;;16.40;99.90;;;;;;5075381;28;20477;-81
2022/10/24 04:55:37;;;;;;;6.80;2.20;;;16.30;99.90;;;;;;5076363;28;20500;-81
2022/10/24 04:58:04;;;;;;;6.13;1.90;;;16.30;99.90;;;;;;5075654;28;20462;-81
2022/10/24 05:00:31;;;;;;;5.00;2.00;;;16.30;99.90;;;;;;5075206;28;20463;-80
2022/10/24 05:02:59;;;;;;;6.07;1.90;;;16.30;99.90;;;;;;5073284;28;20493;-82
2022/10/24 05:05:26;;;;;;;7.83;2.10;;;16.30;99.90;;;;;;5081644;28;20450;-82
2022/10/24 05:07:53;;;;;;;3.90;1.30;;;16.30;99.90;;;;;;5069824;28;20837;-81
2022/10/24 05:10:20;;;;;;;4.90;2.03;;;16.30;99.90;;;;;;5081653;28;20963;-82
2022/10/24 05:12:47;;;;;;;7.07;1.80;;;16.30;99.90;;;;;;5082337;28;20478;-81
2022/10/24 05:15:14;;;;;;;4.47;1.63;;;16.30;99.90;;;;;;5079330;28;21014;-83
2022/10/24 05:17:40;;;;;;;3.70;1.77;;;16.30;99.90;;;;;;5083214;28;20447;-81
2022/10/24 05:20:10;;;;;;;4.83;2.53;;;16.40;99.90;;;;;;5074493;28;20482;-82
2022/10/24 05:22:37;;;;;;;3.57;1.70;;;16.40;99.90;;;;;;5093792;28;20462;-82
2022/10/24 05:25:05;;;;;;;4.90;1.60;;;16.40;99.90;;;;;;5078669;28;20445;-82
2022/10/24 05:27:32;;;;;;;6.83;2.10;;;16.30;99.90;;;;;;5080930;28;20459;-81
2022/10/24 05:29:58;;;;;;;9.87;2.00;;;16.30;99.90;;;;;;5093638;28;20452;-81
2022/10/24 05:32:25;;;;;;;5.57;1.70;;;16.40;99.90;;;;;;5091069;28;20458;-81
2022/10/24 05:34:52;;;;;;;5.37;1.70;;;16.40;99.90;;;;;;5075769;28;20962;-81
2022/10/24 05:37:21;;;;;;;4.77;1.63;;;16.40;99.90;;;;;;5075829;28;20505;-81
2022/10/24 05:39:47;;;;;;;4.60;2.07;;;16.30;99.90;;;;;;5090670;28;20455;-81
2022/10/24 05:42:14;;;;;;;5.20;1.80;;;16.20;99.90;;;;;;5069658;28;20488;-80
2022/10/24 05:44:41;;;;;;;4.17;1.63;;;16.20;99.90;;;;;;5091296;28;20454;-81
2022/10/24 05:47:08;;;;;;;4.30;1.77;;;16.20;99.90;;;;;;5091971;28;20443;-81
2022/10/24 05:49:35;;;;;;;3.10;1.90;;;16.20;99.90;;;;;;5074489;28;20451;-82
2022/10/24 05:52:05;;;;;;;4.87;1.50;;;16.30;99.90;;;;;;5078325;28;20486;-86
2022/10/24 05:54:33;;;;;;;3.77;1.60;;;16.20;99.90;;;;;;5094959;28;20442;-85
2022/10/24 05:57:00;;;;;;;6.07;1.80;;;16.20;99.90;;;;;;5096701;28;20476;-85
2022/10/24 05:59:26;;;;;;;6.73;1.63;;;16.20;99.90;;;;;;5097311;28;20823;-86
2022/10/24 06:01:53;;;;;;;13.90;2.10;;;16.20;99.90;;;;;;5079495;28;20457;-85
2022/10/24 06:04:20;;;;;;;3.30;1.57;;;16.20;99.90;;;;;;5074797;28;20453;-86
2022/10/24 06:06:47;;;;;;;3.47;1.80;;;16.20;99.90;;;;;;5074453;28;20452;-86
2022/10/24 06:09:15;;;;;;;4.30;1.50;;;16.20;99.90;;;;;;5079734;28;20454;-84
2022/10/24 06:11:43;;;;;;;4.13;1.40;;;16.30;99.90;;;;;;5092781;28;20499;-83
2022/10/24 06:14:10;;;;;;;3.60;1.20;;;16.30;99.90;;;;;;5082931;28;20476;-85
2022/10/24 06:16:37;;;;;;;3.90;1.53;;;16.30;99.90;;;;;;5093404;28;20482;-85
2022/10/24 06:19:04;;;;;;;3.43;1.53;;;16.30;99.90;;;;;;5093179;28;20836;-85
2022/10/24 06:21:30;;;;;;;5.37;1.50;;;16.20;99.90;;;;;;5094099;28;20453;-83
2022/10/24 06:23:57;;;;;;;5.37;1.50;;;16.20;99.90;;;;;;5093954;28;20471;-84
2022/10/24 06:26:24;;;;;;;5.67;1.30;;;16.10;99.90;;;;;;5093610;28;20452;-85
2022/10/24 06:28:53;;;;;;;5.20;1.47;;;16.20;99.90;;;;;;5092639;28;20458;-85
2022/10/24 06:31:20;;;;;;;5.00;1.50;;;16.20;99.90;;;;;;5088085;28;21037;-85
2022/10/24 06:33:47;;;;;;;4.37;1.73;;;16.20;99.90;;;;;;5073836;28;20469;-84
2022/10/24 06:36:14;;;;;;;2.83;1.40;;;16.30;99.90;;;;;;5073979;28;20506;-83
2022/10/24 06:38:40;;;;;;;4.83;1.50;;;16.30;99.90;;;;;;5073590;28;20462;-84
2022/10/24 06:41:08;;;;;;;5.20;1.23;;;16.20;99.90;;;;;;5073997;28;20454;-83
2022/10/24 06:43:36;;;;;;;4.30;1.70;;;16.30;99.90;;;;;;5073854;28;20487;-85
2022/10/24 06:46:07;;;;;;;4.73;1.53;;;16.30;99.90;;;;;;5073926;28;20447;-85
2022/10/24 06:48:34;;;;;;;4.70;1.27;;;16.40;99.90;;;;;;5073286;28;20451;-85
2022/10/24 06:51:01;;;;;;;10.03;1.43;;;16.40;99.90;;;;;;5074871;28;20451;-84
2022/10/24 06:53:28;;;;;;;4.73;1.20;;;16.50;99.90;;;;;;5073971;28;20494;-85
2022/10/24 06:55:55;;;;;;;6.97;1.40;;;16.40;99.90;;;;;;5075820;28;20983;-85
2022/10/24 06:58:21;;;;;;;3.07;1.30;;;16.40;99.90;;;;;;5075070;28;20455;-86
2022/10/24 07:00:48;;;;;;;3.63;1.20;;;16.50;99.90;;;;;;5076364;28;20454;-85
2022/10/24 07:03:16;;;;;;;3.67;1.50;;;16.50;99.90;;;;;;5075456;28;20468;-86
2022/10/24 07:05:43;;;;;;;2.60;1.10;;;16.50;99.90;;;;;;5075298;28;20454;-85
2022/10/24 07:08:10;;;;;;;4.27;1.53;;;16.50;99.90;;;;;;5074677;28;20452;-84
2022/10/24 07:10:37;;;;;;;7.30;1.40;;;16.50;99.90;;;;;;5074374;28;20946;-84
2022/10/24 07:13:04;;;;;;;6.13;1.97;;;16.60;99.90;;;;;;5073499;28;20492;-83
2022/10/24 07:15:31;;;;;;;7.60;1.83;;;16.70;99.90;;;;;;5073689;28;20497;-85
2022/10/24 07:17:58;;;;;;;3.53;1.30;;;16.70;99.90;;;;;;5075166;28;20998;-85
2022/10/24 07:20:26;;;;;;;4.40;1.20;;;16.70;99.90;;;;;;5074502;28;20450;-85
2022/10/24 07:22:53;;;;;;;5.67;1.77;;;16.70;99.90;;;;;;5074620;28;20472;-83
2022/10/24 07:25:20;;;;;;;6.70;1.30;;;16.80;99.90;;;;;;5075014;28;20440;-86
2022/10/24 07:27:46;;;;;;;6.30;1.43;;;16.90;99.90;;;;;;5077591;28;20548;-84
2022/10/24 07:30:16;;;;;;;2.77;1.03;;;17.00;99.90;;;;;;5076793;28;20898;-85
2022/10/24 07:32:43;;;;;;;4.17;1.43;;;17.00;99.90;;;;;;5079617;28;20479;-85
2022/10/24 07:35:11;;;;;;;4.77;1.60;;;17.10;99.90;;;;;;5102570;28;20533;-85
2022/10/24 07:37:40;;;;;;;4.50;1.80;;;17.10;99.90;;;;;;5110671;28;20487;-84
2022/10/24 07:40:08;;;;;;;4.47;1.30;;;17.10;99.90;;;;;;5111461;28;21271;-85
2022/10/24 07:42:34;;;;;;;4.23;1.23;;;17.20;99.90;;;;;;5094777;28;20560;-85
2022/10/24 07:45:02;;;;;;;4.80;1.87;;;17.10;99.90;;;;;;5094778;28;20461;-86
2022/10/24 07:47:29;;;;;;;2.63;1.10;;;17.10;99.90;;;;;;5094010;28;20450;-85
2022/10/24 07:49:56;;;;;;;6.13;1.53;;;17.10;99.90;;;;;;5090189;28;20460;-84
2022/10/24 07:52:23;;;;;;;4.43;1.50;;;17.20;99.90;;;;;;5074594;28;20908;-86
2022/10/24 07:54:52;;;;;;;5.10;1.20;;;17.10;99.90;;;;;;5073897;28;20444;-85
2022/10/24 07:57:19;;;;;;;6.50;1.40;;;17.20;99.90;;;;;;5077853;28;20495;-84
2022/10/24 07:59:46;;;;;;;4.17;1.70;;;17.20;99.90;;;;;;5076871;28;20457;-83
2022/10/24 08:02:14;;;;;;;6.93;1.73;;;17.20;99.90;;;;;;5077352;28;20569;-83
2022/10/24 08:04:41;;;;;;;3.80;1.40;;;17.20;99.90;;;;;;5076845;28;20834;-84
2022/10/24 08:07:11;;;;;;;3.23;1.10;;;17.20;99.90;;;;;;5088933;28;20449;-84
2022/10/24 08:09:38;;;;;;;5.73;1.40;;;17.10;99.90;;;;;;5096238;28;20453;-84
2022/10/24 08:12:07;;;;;;;4.83;1.30;;;17.10;99.90;;;;;;5096814;28;20556;-83
2022/10/24 08:14:34;;;;;;;3.70;1.47;;;17.10;99.90;;;;;;5097133;28;20449;-85
2022/10/24 08:17:00;;;;;;;3.93;1.10;;;17.20;99.90;;;;;;5099090;28;20573;-85
2022/10/24 08:19:27;;;;;;;5.40;1.20;;;17.20;99.90;;;;;;5098342;28;21049;-84
2022/10/24 08:21:54;;;;;;;3.83;1.50;;;17.30;99.90;;;;;;5095552;28;20552;-84
2022/10/24 08:24:21;;;;;;;2.53;1.00;;;17.40;99.90;;;;;;5098610;28;20457;-84
2022/10/24 08:26:48;;;;;;;5.03;1.70;;;17.40;99.90;;;;;;5097471;28;20438;-86
2022/10/24 08:29:21;;;;;;;4.43;1.17;;;17.50;99.90;;;;;;5096980;28;20453;-86
2022/10/24 08:31:50;;;;;;;4.23;1.27;;;17.40;99.90;;;;;;5106320;28;20449;-86
2022/10/24 08:34:17;;;;;;;7.60;1.70;;;17.40;99.90;;;;;;5120177;28;20440;-85
2022/10/24 08:36:44;;;;;;;3.73;1.30;;;17.40;99.90;;;;;;5119443;28;20483;-86
2022/10/24 08:39:11;;;;;;;3.10;1.30;;;17.50;99.90;;;;;;5106315;28;20484;-85
2022/10/24 08:41:40;;;;;;;9.17;2.40;;;17.40;99.90;;;;;;5101798;28;20457;-85
2022/10/24 08:44:20;;;;;;;4.13;1.50;;;17.50;99.90;;;;;;5101849;28;20681;-88
2022/10/24 08:46:52;;;;;;;5.20;1.37;;;17.50;99.90;;;;;;5101846;28;20427;-85
2022/10/24 08:49:27;;;;;;;5.80;1.67;;;17.50;99.90;;;;;;5101172;28;20449;-85
2022/10/24 08:51:57;;;;;;;7.70;1.67;;;17.60;99.90;;;;;;5101614;28;20527;-85
2022/10/24 08:54:30;;;;;;;6.23;1.77;;;17.70;99.90;;;;;;5093286;28;20473;-86
2022/10/24 08:56:58;;;;;;;6.43;1.70;;;17.60;99.90;;;;;;5082090;28;20498;-86
2022/10/24 08:59:30;;;;;;;7.27;1.63;;;17.50;99.90;;;;;;5080744;28;20482;-86
2022/10/24 09:02:00;;;;;;;6.33;1.40;;;17.60;99.90;;;;;;5080861;28;20453;-85
2022/10/24 09:04:33;;;;;;;8.07;1.63;;;17.60;99.90;;;;;;5080891;28;20960;-86
2022/10/24 09:07:01;;;;;;;5.30;1.60;;;17.50;99.90;;;;;;5081551;28;20979;-85
2022/10/24 09:09:33;;;;;;;7.00;1.70;;;17.50;99.90;;;;;;5076754;28;20446;-85
2022/10/24 09:12:02;;;;;;;4.20;1.60;;;17.50;99.90;;;;;;5080147;28;20482;-85
2022/10/24 09:14:33;;;;;;;5.70;1.50;;;17.50;99.90;;;;;;5082453;28;20457;-85
2022/10/24 09:17:06;;;;;;;8.10;1.63;;;17.50;99.90;;;;;;5078097;28;21008;-85
2022/10/24 09:19:33;;;;;;;4.20;1.30;;;17.40;99.90;;;;;;5078216;28;20428;-85
2022/10/24 09:22:01;;;;;;;4.50;1.63;;;17.50;99.90;;;;;;5089375;28;20990;-86
2022/10/24 09:24:36;;;;;;;6.80;1.93;;;17.50;99.90;;;;;;5101586;28;20461;-87
2022/10/24 09:27:07;;;;;;;6.80;2.20;;;17.40;99.90;;;;;;5100986;28;20434;-86
2022/10/24 09:29:35;;;;;;;8.03;1.50;;;17.40;99.90;;;;;;5099519;28;20445;-87
2022/10/24 09:32:03;;;;;;;5.77;1.53;;;17.30;99.90;;;;;;5100733;28;20564;-86
2022/10/24 09:34:29;;;;;;;4.07;1.17;;;17.30;99.90;;;;;;5098389;28;20952;-85
2022/10/24 09:36:56;;;;;;;4.80;1.20;;;17.40;99.90;;;;;;5072671;28;20493;-84
2022/10/24 09:39:31;;;;;;;12.00;1.70;;;17.60;99.90;;;;;;5080362;28;20539;-85
2022/10/24 09:41:59;;;;;;;4.87;1.20;;;17.70;99.90;;;;;;5095984;28;20473;-84
2022/10/24 09:44:33;;;;;;;5.13;1.57;;;17.70;99.90;;;;;;5099856;28;20455;-85
2022/10/24 09:47:04;;;;;;;6.17;1.40;;;17.60;99.90;;;;;;5094862;28;20456;-85
2022/10/24 09:49:35;;;;;;;6.27;1.60;;;17.60;99.90;;;;;;5079068;28;20846;-86
2022/10/24 09:52:16;;;;;;;4.83;1.47;;;17.50;99.90;;;;;;5077625;28;20471;-86
2022/10/24 09:54:43;;;;;;;6.43;1.70;;;17.50;99.90;;;;;;5076714;28;20429;-85
2022/10/24 09:57:14;;;;;;;6.07;1.50;;;17.50;99.90;;;;;;5076961;28;20484;-85
2022/10/24 09:59:43;;;;;;;4.40;1.10;;;17.40;99.90;;;;;;5077853;28;20455;-86
2022/10/24 10:02:23;;;;;;;4.73;1.47;;;17.50;99.90;;;;;;5078091;28;20494;-86
2022/10/24 10:05:15;;;;;;;5.60;1.17;;;17.70;99.90;;;;;;5078676;28;20435;-86
2022/10/24 10:07:47;;;;;;;3.40;1.20;;;17.70;99.90;;;;;;5077612;28;20443;-85
2022/10/24 10:10:25;;;;;;;6.17;1.90;;;17.80;99.90;;;;;;5077964;28;21110;-84
2022/10/24 10:13:03;;;;;;;6.77;1.40;;;17.90;99.90;;;;;;5077321;28;20476;-84
2022/10/24 10:15:34;;;;;;;9.07;1.20;;;18.00;99.90;;;;;;5077541;28;20432;-83
2022/10/24 10:18:05;;;;;;;3.67;1.10;;;18.00;99.90;;;;;;5074637;28;20571;-83
2022/10/24 10:20:37;;;;;;;4.13;1.57;;;18.00;99.90;;;;;;5077183;28;20446;-85
2022/10/24 10:23:24;;;;;;;6.73;2.03;;;18.00;99.90;;;;;;5077305;28;20498;-85
2022/10/24 10:26:06;;;;;;;7.57;1.70;;;18.00;99.90;;;;;;5078040;28;20835;-84
2022/10/24 10:28:37;;;;;;;7.23;1.40;;;17.90;99.90;;;;;;5079849;28;20523;-84
2022/10/24 10:31:09;;;;;;;8.60;1.60;;;17.90;99.90;;;;;;5082087;28;20460;-83
2022/10/24 10:33:45;;;;;;;5.50;1.20;;;18.00;99.90;;;;;;5080017;28;20522;-84
2022/10/24 10:36:16;;;;;;;7.73;1.27;;;18.00;99.90;;;;;;5078096;28;20466;-82
2022/10/24 10:38:49;;;;;;;4.73;1.17;;;18.20;99.90;;;;;;5077825;28;20480;-85
2022/10/24 10:41:37;;;;;;;4.60;1.50;;;18.40;99.90;;;;;;5078988;28;20450;-86
2022/10/24 10:44:25;;;;;;;3.57;1.47;;;18.80;99.90;;;;;;5058472;28;20944;-84
2022/10/24 10:47:05;;;;;;;6.80;2.00;;;18.80;99.90;;;;;;5069416;28;20467;-85
2022/10/24 10:49:38;;;;;;;5.73;1.67;;;18.70;99.90;;;;;;5078779;28;20456;-85
2022/10/24 10:52:11;;;;;;;2.50;1.10;;;18.50;99.90;;;;;;5079553;28;20476;-84
2022/10/24 10:55:22;;;;;;;7.07;1.73;;;18.50;99.90;;;;;;5076416;28;20472;-84
2022/10/24 10:57:55;;;;;;;5.87;1.30;;;18.40;99.90;;;;;;5047969;28;20488;-83
2022/10/24 11:00:31;;;;;;;5.87;1.30;;;18.40;99.90;;;;;;5070923;28;20457;-84
2022/10/24 11:03:07;;;;;;;5.47;1.40;;;18.30;99.90;;;;;;5078126;28;20477;-84
2022/10/24 11:05:47;;;;;;;3.87;1.57;;;18.40;99.90;;;;;;5081388;28;20458;-84
2022/10/24 11:08:30;;;;;;;6.37;1.73;;;18.30;99.90;;;;;;5089479;28;20447;-83
2022/10/24 11:11:02;;;;;;;3.57;1.17;;;18.40;99.90;;;;;;5089711;28;20432;-83
2022/10/24 11:13:34;;;;;;;6.00;2.37;;;18.50;99.90;;;;;;5079330;28;21014;-84
2022/10/24 11:16:05;;;;;;;7.10;1.80;;;18.60;99.90;;;;;;5076830;28;20458;-84
2022/10/24 11:18:35;;;;;;;6.90;1.80;;;18.70;99.90;;;;;;5076959;28;20479;-84
2022/10/24 11:21:06;;;;;;;10.70;1.60;;;18.80;99.90;;;;;;5077347;28;20452;-84
2022/10/24 11:23:38;;;;;;;5.70;1.40;;;18.70;99.90;;;;;;5076785;28;20818;-84
2022/10/24 11:26:09;;;;;;;5.90;1.37;;;19.00;99.90;;;;;;5076650;28;20442;-82
2022/10/24 11:28:41;;;;;;;6.50;1.53;;;19.40;99.90;;;;;;5077136;28;20820;-82
2022/10/24 11:31:12;;;;;;;6.83;1.50;;;19.40;99.90;;;;;;5081963;28;20533;-82
2022/10/24 11:33:43;;;;;;;7.53;1.70;;;19.10;99.90;;;;;;5078770;28;20512;-84
2022/10/24 11:36:23;;;;;;;6.93;2.10;;;19.10;99.90;;;;;;5083460;28;20460;-84
2022/10/24 11:38:55;;;;;;;5.40;1.43;;;19.10;99.90;;;;;;5079694;28;20877;-83
2022/10/24 11:41:54;;;;;;;3.20;1.40;;;19.20;99.90;;;;;;5079532;28;20458;-83
2022/10/24 11:44:29;;;;;;;5.03;1.90;;;19.00;99.90;;;;;;5074134;28;20480;-83
2022/10/24 11:47:04;;;;;;;5.10;1.87;;;18.90;99.90;;;;;;5079663;28;20804;-83
2022/10/24 11:49:34;;;;;;;6.17;1.60;;;18.80;99.90;;;;;;5079431;28;20444;-84
2022/10/24 11:52:11;;;;;;;3.10;1.20;;;18.90;99.90;;;;;;5079969;28;20819;-84
2022/10/24 11:54:46;;;;;;;5.60;1.53;;;18.80;99.90;;;;;;5080558;28;20453;-83
2022/10/24 11:57:17;;;;;;;10.67;1.20;;;18.70;99.90;;;;;;5081624;28;20437;-83
2022/10/24 11:59:44;;;;;;;6.33;1.50;;;18.70;99.90;;;;;;5082778;28;20798;-84
2022/10/24 12:02:55;;;;;;;9.23;1.43;;;18.60;99.90;;;;;;5080474;28;20473;-83
2022/10/24 12:05:55;;;;;;;7.00;1.80;;;18.40;99.90;;;;;;5079347;28;20431;-84
2022/10/24 12:08:40;;;;;;;28.57;2.83;;;18.40;99.90;;;;;;5078829;28;20441;-83
2022/10/24 12:11:31;;;;;;;5.90;1.80;;;18.30;99.90;;;;;;5080708;28;20924;-83
2022/10/24 12:14:22;;;;;;;8.73;2.13;;;18.20;99.90;;;;;;5079968;28;20470;-84
2022/10/24 12:17:04;;;;;;;7.33;1.50;;;18.30;99.90;;;;;;5077702;28;20449;-84
2022/10/24 12:19:31;;;;;;;5.20;1.33;;;18.30;99.90;;;;;;5079321;28;20466;-83
2022/10/24 12:22:03;;;;;;;6.00;1.50;;;18.20;99.90;;;;;;5078953;28;20453;-84
2022/10/24 12:24:34;;;;;;;5.67;1.90;;;18.20;99.90;;;;;;5059842;28;20480;-84
2022/10/24 12:27:03;;;;;;;6.83;1.70;;;18.20;99.90;;;;;;5058250;28;20439;-84
2022/10/24 12:29:32;;;;;;;6.87;2.00;;;18.10;99.90;;;;;;5058865;28;20985;-83
2022/10/24 12:32:00;;;;;;;8.93;1.97;;;18.00;99.90;;;;;;5059883;28;20470;-84
2022/10/24 12:34:44;;;;;;;6.93;1.60;;;18.00;99.90;;;;;;5061525;28;20835;-84
2022/10/24 12:37:30;;;;;;;8.40;1.97;;;18.00;99.90;;;;;;5077867;28;20449;-84
2022/10/24 12:39:58;;;;;;;4.63;1.40;;;17.90;99.90;;;;;;5077227;28;20449;-84
2022/10/24 12:43:02;;;;;;;10.40;1.77;;;17.90;99.90;;;;;;5076652;28;20553;-84
2022/10/24 12:45:30;;;;;;;5.27;1.40;;;17.90;99.90;;;;;;5078230;28;20450;-82
2022/10/24 12:48:15;;;;;;;4.63;1.40;;;17.90;99.90;;;;;;5077832;28;20441;-83
2022/10/24 12:50:57;;;;;;;9.53;2.00;;;17.80;99.90;;;;;;5079246;28;20447;-83
2022/10/24 12:53:39;;;;;;;5.30;1.30;;;17.70;99.90;;;;;;5079720;28;20470;-83
2022/10/24 12:56:14;;;;;;;4.20;1.20;;;17.80;99.90;;;;;;5078516;28;20690;-83
2022/10/24 12:58:42;;;;;;;4.90;1.70;;;17.80;99.90;;;;;;5078833;28;20488;-83
2022/10/24 13:01:21;;;;;;;6.47;1.40;;;17.80;99.90;;;;;;5079384;28;20455;-83
2022/10/24 13:04:30;;;;;;;6.20;2.00;;;17.80;99.90;;;;;;5078331;28;20474;-83